Clearbrook, Washington
Current Conditions -  °F | °C
As of 6:00 PM on Friday 24 Oct 2014 (Local Time) from CYXX Reporting Station
Overcast Overcast  
Wind Chill: 52°   Ceiling: 15000
Heat Index: 52°   Visibility: 30mi
Dew Point: 46°   Wind: 6mph
Humidity: 82%   Direction: 30°NNE
Pressure: 29.92"   Gusts: NA
Location:  48.9612°N, 122.12°W
Report Text: CYXX 250100Z 03005KT 30SM SCT100 OVC150 11/08 A2992 RMK AC4AS4 SLP134
Loading
Personal Weather Stations






























Interactive Weather Map
Tropical Storm Tracking
New forecast layout! Learn more

10-Day Weather Forecast

Advertisements
Track Severe Weather on mobile